createdAt,value
2018-09-10T00:01:24.194Z,61.00
2018-09-10T00:03:52.511Z,61.00
2018-09-10T00:06:20.857Z,61.10
2018-09-10T00:08:49.978Z,61.10
2018-09-10T00:11:19.432Z,61.00
2018-09-10T00:13:47.745Z,60.70
2018-09-10T00:16:16.090Z,60.50
2018-09-10T00:18:44.409Z,60.80
2018-09-10T00:21:12.756Z,60.80
2018-09-10T00:23:41.074Z,60.80
2018-09-10T00:26:09.424Z,60.90
2018-09-10T00:28:37.762Z,61.00
2018-09-10T00:31:06.086Z,61.30
2018-09-10T00:33:34.423Z,61.40
2018-09-10T00:36:02.773Z,61.60
2018-09-10T00:38:31.097Z,61.60
2018-09-10T00:41:00.168Z,61.80
2018-09-10T00:43:28.487Z,62.10
2018-09-10T00:45:56.846Z,62.40
2018-09-10T00:48:25.174Z,62.50
2018-09-10T00:50:53.523Z,62.30
2018-09-10T00:53:21.846Z,62.60
2018-09-10T00:55:50.173Z,62.70
2018-09-10T00:58:18.507Z,62.60
2018-09-10T01:00:46.854Z,62.60
2018-09-10T01:03:15.215Z,62.80
2018-09-10T01:05:43.565Z,63.00
2018-09-10T01:08:11.883Z,63.00
2018-09-10T01:10:40.233Z,62.80
2018-09-10T01:13:08.604Z,63.00
2018-09-10T01:15:36.953Z,63.20
2018-09-10T01:18:05.262Z,63.20
2018-09-10T01:20:33.598Z,63.40
2018-09-10T01:23:01.930Z,63.30
2018-09-10T01:25:30.285Z,63.40
2018-09-10T01:27:58.661Z,63.60
2018-09-10T01:30:26.990Z,63.80
2018-09-10T01:32:55.329Z,63.90
2018-09-10T01:35:23.644Z,63.90
2018-09-10T01:37:51.970Z,63.90
2018-09-10T01:40:20.324Z,64.10
2018-09-10T01:42:48.658Z,64.20
2018-09-10T01:45:16.966Z,64.30
2018-09-10T01:47:45.293Z,64.50
2018-09-10T01:50:13.706Z,64.60
2018-09-10T01:52:42.053Z,64.80
2018-09-10T01:55:10.365Z,65.00
2018-09-10T01:57:38.697Z,65.30
2018-09-10T02:00:07.075Z,65.50
2018-09-10T02:02:35.416Z,65.40
2018-09-10T02:05:03.741Z,65.50
2018-09-10T02:07:32.083Z,65.80
2018-09-10T02:10:00.807Z,66.10
2018-09-10T02:12:29.146Z,66.40
2018-09-10T02:14:57.462Z,66.10
2018-09-10T02:17:26.127Z,66.30
2018-09-10T02:19:54.702Z,66.40
2018-09-10T02:22:23.033Z,66.30
2018-09-10T02:24:51.536Z,66.50
2018-09-10T02:27:19.896Z,66.50
2018-09-10T02:29:48.287Z,66.40
2018-09-10T02:32:16.646Z,66.80
2018-09-10T02:34:44.966Z,66.80
2018-09-10T02:37:13.320Z,67.10
2018-09-10T02:39:41.630Z,67.10
2018-09-10T02:42:09.954Z,67.30
2018-09-10T02:44:38.262Z,67.60
2018-09-10T02:47:06.593Z,67.80
2018-09-10T02:49:34.915Z,67.70
2018-09-10T02:52:03.304Z,67.70
2018-09-10T02:54:31.658Z,67.50
2018-09-10T02:57:00.110Z,67.80
2018-09-10T02:59:28.430Z,67.60
2018-09-10T03:01:59.794Z,67.70
2018-09-10T03:04:28.131Z,67.70
2018-09-10T03:06:56.482Z,67.60
2018-09-10T03:09:24.820Z,67.90
2018-09-10T03:11:53.159Z,68.10
2018-09-10T03:14:21.474Z,68.20
2018-09-10T03:16:49.819Z,68.40
2018-09-10T03:19:18.172Z,68.70
2018-09-10T03:21:46.509Z,68.60
2018-09-10T03:24:14.912Z,68.70
2018-09-10T03:26:43.210Z,69.00
2018-09-10T03:29:11.513Z,69.20
2018-09-10T03:31:39.854Z,69.10
2018-09-10T03:34:08.160Z,68.80
2018-09-10T03:36:36.501Z,69.10
2018-09-10T03:39:06.481Z,69.10
2018-09-10T03:41:34.813Z,69.10
2018-09-10T03:44:03.126Z,69.10
2018-09-10T03:46:31.534Z,69.30
2018-09-10T03:48:59.850Z,69.30
2018-09-10T03:51:28.203Z,69.20
2018-09-10T03:53:56.547Z,69.50
2018-09-10T03:56:24.866Z,69.90
2018-09-10T03:58:53.477Z,69.60
2018-09-10T04:01:21.790Z,69.50
2018-09-10T04:03:50.126Z,69.30
2018-09-10T04:06:18.446Z,69.20
2018-09-10T04:08:46.807Z,69.40
2018-09-10T04:11:15.128Z,69.30
2018-09-10T04:13:43.469Z,69.40
2018-09-10T04:16:11.810Z,69.60
2018-09-10T04:18:40.159Z,69.70
2018-09-10T04:21:08.486Z,69.90
2018-09-10T04:23:36.871Z,70.10
2018-09-10T04:26:05.340Z,70.00
2018-09-10T04:28:33.610Z,70.00
2018-09-10T04:31:01.917Z,70.40
2018-09-10T04:33:30.270Z,70.10
2018-09-10T04:35:58.646Z,70.20
2018-09-10T04:38:26.958Z,70.60
2018-09-10T04:40:55.269Z,70.50
2018-09-10T04:43:23.611Z,70.40
2018-09-10T04:45:51.950Z,70.50
2018-09-10T04:48:20.609Z,70.60
2018-09-10T04:50:48.969Z,70.80
2018-09-10T04:53:17.318Z,71.10
2018-09-10T04:55:45.637Z,71.00
2018-09-10T04:58:14.047Z,71.10
2018-09-10T05:00:42.314Z,71.40
2018-09-10T05:03:10.643Z,71.40
2018-09-10T05:05:38.989Z,71.40
2018-09-10T05:08:07.330Z,71.60
2018-09-10T05:10:35.684Z,71.60
2018-09-10T05:13:04.009Z,71.60
2018-09-10T05:15:32.327Z,71.80
2018-09-10T05:18:00.662Z,71.70
2018-09-10T05:20:28.985Z,72.50
2018-09-10T05:22:57.314Z,71.80
2018-09-10T05:25:25.642Z,72.00
2018-09-10T05:27:54.064Z,72.10
2018-09-10T05:30:22.366Z,72.20
2018-09-10T05:32:50.697Z,72.40
2018-09-10T05:35:19.015Z,72.80
2018-09-10T05:37:47.346Z,72.80
2018-09-10T05:40:15.658Z,72.90
2018-09-10T05:42:44.025Z,73.20
2018-09-10T05:45:13.080Z,73.40
2018-09-10T05:47:41.812Z,73.80
2018-09-10T05:50:11.047Z,73.80
2018-09-10T05:52:39.551Z,73.60
2018-09-10T05:55:07.933Z,73.50
2018-09-10T05:57:36.279Z,73.70
2018-09-10T06:00:05.050Z,73.90
2018-09-10T06:02:39.954Z,73.90
2018-09-10T06:05:08.267Z,74.10
2018-09-10T06:07:36.606Z,74.40
2018-09-10T06:10:05.078Z,74.60
2018-09-10T06:12:33.394Z,75.00
2018-09-10T06:15:01.771Z,75.10
2018-09-10T06:17:30.117Z,75.30
2018-09-10T06:19:58.450Z,75.70
2018-09-10T06:22:26.758Z,75.70
2018-09-10T06:24:55.090Z,75.60
2018-09-10T06:27:23.402Z,75.70
2018-09-10T06:29:51.741Z,76.00
2018-09-10T06:32:20.046Z,76.20
2018-09-10T06:34:48.410Z,76.30
2018-09-10T06:37:16.781Z,76.50
2018-09-10T06:39:45.094Z,76.60
2018-09-10T06:42:13.409Z,76.50
2018-09-10T06:44:41.742Z,76.30
2018-09-10T06:47:10.048Z,76.60
2018-09-10T06:49:42.821Z,76.90
2018-09-10T06:52:11.135Z,76.90
2018-09-10T06:54:39.476Z,76.50
2018-09-10T06:57:07.804Z,75.90
2018-09-10T06:59:36.142Z,75.30
2018-09-10T07:02:04.504Z,74.60
2018-09-10T07:04:32.838Z,73.80
2018-09-10T07:07:01.159Z,72.70
2018-09-10T07:09:29.522Z,72.50
2018-09-10T07:11:57.831Z,71.70
2018-09-10T07:14:26.207Z,71.20
2018-09-10T07:17:01.246Z,71.00
2018-09-10T07:19:29.589Z,70.60
2018-09-10T07:21:57.898Z,70.30
2018-09-10T07:24:26.247Z,70.00
2018-09-10T07:26:54.578Z,70.00
2018-09-10T07:29:22.910Z,70.20
2018-09-10T07:31:51.219Z,69.90
2018-09-10T07:34:19.609Z,69.50
2018-09-10T07:36:47.922Z,69.70
2018-09-10T07:39:16.247Z,69.50
2018-09-10T07:41:44.567Z,69.10
2018-09-10T07:44:12.961Z,68.70
2018-09-10T07:46:42.125Z,68.50
2018-09-10T07:49:10.449Z,68.30
2018-09-10T07:51:38.779Z,68.50
2018-09-10T07:54:07.404Z,68.60
2018-09-10T07:56:35.743Z,68.70
2018-09-10T07:59:04.095Z,68.50
2018-09-10T08:01:32.441Z,68.70
2018-09-10T08:04:00.812Z,68.40
2018-09-10T08:06:29.121Z,67.50
2018-09-10T08:08:57.511Z,67.10
2018-09-10T08:11:25.869Z,66.20
2018-09-10T08:13:54.230Z,65.50
2018-09-10T08:16:22.552Z,65.10
2018-09-10T08:18:50.911Z,65.10
2018-09-10T08:21:19.225Z,64.60
2018-09-10T08:23:47.566Z,64.10
2018-09-10T08:26:15.894Z,64.40
2018-09-10T08:28:44.269Z,64.20
2018-09-10T08:31:12.590Z,64.00
2018-09-10T08:33:40.918Z,63.80
2018-09-10T08:36:09.297Z,63.90
2018-09-10T08:38:37.614Z,63.80
2018-09-10T08:41:05.958Z,63.70
2018-09-10T08:43:34.282Z,63.50
2018-09-10T08:46:02.624Z,63.50
2018-09-10T08:48:30.959Z,63.20
2018-09-10T08:50:59.295Z,63.00
2018-09-10T08:53:27.626Z,63.10
2018-09-10T08:55:56.105Z,62.80
2018-09-10T08:58:24.330Z,62.80
2018-09-10T09:00:52.648Z,62.80
2018-09-10T09:03:20.959Z,62.40
2018-09-10T09:05:49.349Z,62.00
2018-09-10T09:08:17.726Z,61.20
2018-09-10T09:10:46.074Z,61.00
2018-09-10T09:13:14.396Z,59.30
2018-09-10T09:15:42.727Z,59.00
2018-09-10T09:18:11.073Z,59.10
2018-09-10T09:20:39.398Z,57.10
2018-09-10T09:23:07.786Z,55.00
2018-09-10T09:25:36.091Z,55.00
2018-09-10T09:28:04.414Z,54.50
2018-09-10T09:30:32.761Z,53.70
2018-09-10T09:33:01.107Z,53.70
2018-09-10T09:35:34.874Z,53.90
2018-09-10T09:38:08.617Z,54.00
2018-09-10T09:40:42.270Z,53.20
2018-09-10T09:43:16.001Z,52.70
2018-09-10T09:45:49.837Z,52.20
2018-09-10T09:50:52.823Z,50.60
2018-09-10T09:53:21.128Z,49.90
2018-09-10T09:55:49.462Z,49.20
2018-09-10T09:58:17.786Z,49.20
2018-09-10T10:00:53.426Z,48.90
2018-09-10T10:03:52.675Z,48.90
2018-09-10T10:06:21.231Z,48.30
2018-09-10T10:08:49.571Z,48.30
2018-09-10T10:11:18.050Z,48.50
2018-09-10T10:13:46.311Z,48.70
2018-09-10T10:16:14.686Z,48.60
2018-09-10T10:18:43.027Z,48.20
2018-09-10T10:21:11.410Z,47.60
2018-09-10T10:23:39.730Z,47.30
2018-09-10T10:26:08.074Z,46.60
2018-09-10T10:28:36.382Z,47.40
2018-09-10T10:31:04.728Z,47.00
2018-09-10T10:33:33.083Z,47.20
2018-09-10T10:36:01.463Z,45.40
2018-09-10T10:38:29.798Z,45.30
2018-09-10T10:40:58.155Z,44.80
2018-09-10T10:43:26.511Z,45.20
2018-09-10T10:45:54.849Z,44.80
2018-09-10T10:48:23.165Z,44.50
2018-09-10T10:50:51.507Z,44.60
2018-09-10T10:53:19.881Z,44.70
2018-09-10T10:55:48.336Z,45.30
2018-09-10T10:58:16.652Z,45.20
2018-09-10T11:00:44.998Z,45.30
2018-09-10T11:03:13.334Z,44.70
2018-09-10T11:05:41.674Z,44.70
2018-09-10T11:08:09.994Z,44.70
2018-09-10T11:10:38.390Z,45.20
2018-09-10T11:13:06.746Z,45.40
2018-09-10T11:15:35.256Z,45.10
2018-09-10T11:18:03.561Z,44.90
2018-09-10T11:20:32.036Z,44.70
2018-09-10T11:23:00.384Z,45.80
2018-09-10T11:25:35.077Z,44.90
2018-09-10T11:28:03.389Z,44.80
2018-09-10T11:30:31.762Z,45.50
2018-09-10T11:33:00.138Z,45.30
2018-09-10T11:35:28.539Z,45.10
2018-09-10T11:37:56.907Z,45.60
2018-09-10T11:40:25.278Z,44.80
2018-09-10T11:42:53.602Z,45.00
2018-09-10T11:45:21.958Z,45.60
2018-09-10T11:47:50.279Z,44.60
2018-09-10T11:50:18.602Z,44.50
2018-09-10T11:52:46.930Z,44.10
2018-09-10T11:55:15.259Z,43.90
2018-09-10T11:57:43.595Z,44.00
2018-09-10T12:00:11.913Z,43.80
2018-09-10T12:02:40.241Z,43.90
2018-09-10T12:05:08.561Z,43.50
2018-09-10T12:07:36.906Z,43.30
2018-09-10T12:10:05.458Z,42.60
2018-09-10T12:12:33.806Z,42.70
2018-09-10T12:15:02.124Z,43.10
2018-09-10T12:17:30.463Z,42.70
2018-09-10T12:19:58.789Z,42.90
2018-09-10T12:22:27.160Z,42.30
2018-09-10T12:24:55.479Z,42.40
2018-09-10T12:27:23.833Z,42.50
2018-09-10T12:29:52.153Z,42.60
2018-09-10T12:32:20.530Z,42.70
2018-09-10T12:34:48.838Z,42.70
2018-09-10T12:37:17.193Z,42.60
2018-09-10T12:39:45.648Z,42.40
2018-09-10T12:42:19.241Z,43.00
2018-09-10T12:44:47.551Z,42.80
2018-09-10T12:47:15.882Z,42.40
2018-09-10T12:49:44.219Z,42.00
2018-09-10T12:52:12.655Z,42.10
2018-09-10T12:54:40.982Z,42.30
2018-09-10T12:57:09.318Z,42.20
2018-09-10T12:59:37.658Z,41.90
2018-09-10T13:02:05.998Z,41.50
2018-09-10T13:04:34.302Z,41.90
2018-09-10T13:07:02.643Z,41.20
2018-09-10T13:09:31.070Z,41.50
2018-09-10T13:11:59.357Z,41.70
2018-09-10T13:14:27.656Z,41.60
2018-09-10T13:19:30.547Z,41.80
2018-09-10T13:21:58.883Z,41.50
2018-09-10T13:24:27.232Z,41.80
2018-09-10T13:26:56.067Z,42.20
2018-09-10T13:29:24.386Z,42.40
2018-09-10T13:31:52.731Z,43.00
2018-09-10T13:34:21.058Z,43.20
2018-09-10T13:36:49.498Z,43.10
2018-09-10T13:39:17.823Z,42.90
2018-09-10T13:41:46.153Z,42.90
2018-09-10T13:44:14.606Z,42.90
2018-09-10T13:46:42.929Z,43.10
2018-09-10T13:49:11.246Z,43.30
2018-09-10T13:51:39.591Z,43.10
2018-09-10T13:54:07.970Z,43.00
2018-09-10T13:56:36.285Z,43.20
2018-09-10T13:59:04.603Z,43.40
2018-09-10T14:01:32.946Z,43.50
2018-09-10T14:04:01.269Z,43.50
2018-09-10T14:06:29.610Z,43.70
2018-09-10T14:08:57.961Z,43.80
2018-09-10T14:11:26.291Z,43.80
2018-09-10T14:13:54.640Z,43.50
2018-09-10T14:16:22.978Z,43.60
2018-09-10T14:18:51.382Z,43.60
2018-09-10T14:21:19.739Z,43.60
2018-09-10T14:23:49.161Z,43.70
2018-09-10T14:26:17.509Z,43.90
2018-09-10T14:28:45.857Z,43.90
2018-09-10T14:31:14.184Z,44.10
2018-09-10T14:33:42.540Z,44.20
2018-09-10T14:36:10.854Z,44.00
2018-09-10T14:38:45.726Z,44.20
2018-09-10T14:41:14.044Z,44.60
2018-09-10T14:43:42.393Z,44.90
2018-09-10T14:46:10.921Z,45.20
2018-09-10T14:48:39.274Z,45.20
2018-09-10T14:51:07.587Z,45.60
2018-09-10T14:53:35.918Z,45.70
2018-09-10T14:56:04.241Z,45.80
2018-09-10T14:58:32.618Z,45.80
2018-09-10T15:01:00.933Z,46.10
2018-09-10T15:03:29.277Z,46.20
2018-09-10T15:05:57.687Z,46.30
2018-09-10T15:08:25.965Z,46.60
2018-09-10T15:10:54.297Z,46.70
2018-09-10T15:13:22.723Z,46.70
2018-09-10T15:15:51.060Z,46.80
2018-09-10T15:18:19.408Z,46.90
2018-09-10T15:20:47.735Z,46.80
2018-09-10T15:23:16.095Z,47.00
2018-09-10T15:25:44.414Z,46.90
2018-09-10T15:28:12.742Z,47.20
2018-09-10T15:30:41.054Z,47.40
2018-09-10T15:33:09.398Z,47.40
2018-09-10T15:35:37.717Z,47.30
2018-09-10T15:38:06.086Z,47.30
2018-09-10T15:40:34.429Z,47.30
2018-09-10T15:43:09.324Z,47.30
2018-09-10T15:45:37.647Z,47.10
2018-09-10T15:48:05.979Z,46.90
2018-09-10T15:50:34.303Z,47.00
2018-09-10T15:53:02.662Z,47.20
2018-09-10T15:55:30.990Z,47.40
2018-09-10T15:57:59.657Z,47.60
2018-09-10T16:00:27.981Z,47.70
2018-09-10T16:02:56.313Z,48.10
2018-09-10T16:07:59.222Z,48.30
2018-09-10T16:10:27.587Z,48.40
2018-09-10T16:12:55.947Z,48.60
2018-09-10T16:15:24.322Z,48.70
2018-09-10T16:17:52.661Z,48.90
2018-09-10T16:20:20.969Z,49.10
2018-09-10T16:22:49.302Z,49.30
2018-09-10T16:25:17.628Z,49.40
2018-09-10T16:27:45.971Z,49.40
2018-09-10T16:30:14.309Z,49.60
2018-09-10T16:32:42.629Z,49.90
2018-09-10T16:35:10.936Z,50.20
2018-09-10T16:37:39.275Z,50.50
2018-09-10T16:40:07.626Z,50.80
2018-09-10T16:42:35.937Z,50.90
2018-09-10T16:45:04.270Z,51.00
2018-09-10T16:47:33.650Z,51.10
2018-09-10T16:50:01.981Z,51.10
2018-09-10T16:52:30.305Z,51.30
2018-09-10T16:54:58.665Z,51.40
2018-09-10T16:57:27.005Z,51.60
2018-09-10T16:59:55.399Z,51.70
2018-09-10T17:02:23.719Z,52.20
2018-09-10T17:04:52.047Z,52.20
2018-09-10T17:07:20.367Z,52.40
2018-09-10T17:09:48.733Z,52.50
2018-09-10T17:12:17.073Z,52.70
2018-09-10T17:14:45.458Z,53.00
2018-09-10T17:17:13.782Z,53.00
2018-09-10T17:19:42.123Z,53.80
2018-09-10T17:22:10.453Z,53.20
2018-09-10T17:24:38.798Z,53.10
2018-09-10T17:27:07.131Z,53.30
2018-09-10T17:29:35.469Z,53.30
2018-09-10T17:32:03.852Z,53.50
2018-09-10T17:34:32.191Z,53.70
2018-09-10T17:37:00.509Z,53.60
2018-09-10T17:39:28.861Z,53.60
2018-09-10T17:41:57.183Z,53.90
2018-09-10T17:44:25.520Z,54.10
2018-09-10T17:46:53.852Z,54.20
2018-09-10T17:49:22.182Z,54.20
2018-09-10T17:51:50.595Z,54.40
2018-09-10T17:54:18.942Z,55.10
2018-09-10T17:56:47.275Z,54.70
2018-09-10T17:59:15.619Z,54.70
2018-09-10T18:01:43.935Z,54.70
2018-09-10T18:04:12.265Z,54.90
2018-09-10T18:06:40.575Z,55.10
2018-09-10T18:09:10.470Z,55.20
2018-09-10T18:11:38.862Z,55.40
2018-09-10T18:14:07.272Z,55.40
2018-09-10T18:16:35.582Z,55.50
2018-09-10T18:19:03.911Z,55.50
2018-09-10T18:21:33.282Z,55.60
2018-09-10T18:24:01.620Z,55.70
2018-09-10T18:26:29.942Z,55.90
2018-09-10T18:28:58.450Z,55.90
2018-09-10T18:31:26.770Z,56.10
2018-09-10T18:33:55.104Z,56.20
2018-09-10T18:36:23.414Z,56.40
2018-09-10T18:38:51.907Z,57.20
2018-09-10T18:41:20.617Z,56.80
2018-09-10T18:43:48.947Z,56.70
2018-09-10T18:46:17.258Z,56.80
2018-09-10T18:48:45.637Z,57.00
2018-09-10T18:51:13.956Z,57.30
2018-09-10T18:53:42.289Z,57.30
2018-09-10T18:56:10.618Z,58.20
2018-09-10T18:58:38.947Z,57.70
2018-09-10T19:01:07.457Z,57.90
2018-09-10T19:03:35.636Z,58.10
2018-09-10T19:06:03.979Z,58.30
2018-09-10T19:08:32.287Z,58.50
2018-09-10T19:11:00.640Z,58.60
2018-09-10T19:13:28.969Z,58.70
2018-09-10T19:15:57.338Z,59.00
2018-09-10T19:18:31.015Z,59.00
2018-09-10T19:20:59.359Z,59.20
2018-09-10T19:23:27.702Z,59.30
2018-09-10T19:25:56.043Z,59.20
2018-09-10T19:28:24.350Z,59.20
2018-09-10T19:30:52.689Z,59.20
2018-09-10T19:33:21.004Z,59.30
2018-09-10T19:35:49.437Z,59.20
2018-09-10T19:38:17.746Z,59.30
2018-09-10T19:40:52.730Z,59.20
2018-09-10T19:43:21.051Z,59.20
2018-09-10T19:45:49.386Z,59.40
2018-09-10T19:48:17.693Z,59.30
2018-09-10T19:50:46.081Z,59.30
2018-09-10T19:53:14.370Z,59.20
2018-09-10T19:55:43.105Z,59.30
2018-09-10T19:58:11.420Z,59.40
2018-09-10T20:00:39.750Z,59.50
2018-09-10T20:03:08.078Z,59.60
2018-09-10T20:05:36.422Z,59.60
2018-09-10T20:08:04.759Z,59.60
2018-09-10T20:10:33.118Z,59.80
2018-09-10T20:13:01.426Z,59.80
2018-09-10T20:15:29.770Z,60.60
2018-09-10T20:17:58.094Z,60.10
2018-09-10T20:20:26.791Z,60.30
2018-09-10T20:22:55.099Z,60.30
2018-09-10T20:25:23.421Z,60.30
2018-09-10T20:27:51.730Z,60.40
2018-09-10T20:30:20.054Z,60.40
2018-09-10T20:32:48.495Z,60.60
2018-09-10T20:35:16.834Z,60.60
2018-09-10T20:37:45.155Z,60.60
2018-09-10T20:40:13.491Z,60.80
2018-09-10T20:42:41.799Z,60.90
2018-09-10T20:45:10.190Z,61.00
2018-09-10T20:47:38.489Z,61.00
2018-09-10T20:50:06.882Z,61.10
2018-09-10T20:52:35.194Z,61.10
2018-09-10T20:55:03.527Z,61.20
2018-09-10T20:57:31.945Z,61.20
2018-09-10T21:00:00.274Z,61.30
2018-09-10T21:02:28.591Z,61.20
2018-09-10T21:04:56.940Z,61.40
2018-09-10T21:07:25.346Z,61.70
2018-09-10T21:09:53.895Z,61.80
2018-09-10T21:12:22.260Z,62.00
2018-09-10T21:14:50.590Z,63.00
2018-09-10T21:17:18.909Z,62.20
2018-09-10T21:19:47.226Z,62.20
2018-09-10T21:22:15.565Z,62.30
2018-09-10T21:24:43.885Z,62.40
2018-09-10T21:27:12.214Z,62.40
2018-09-10T21:29:40.530Z,62.40
2018-09-10T21:32:08.876Z,62.60
2018-09-10T21:34:37.205Z,62.70
2018-09-10T21:37:05.917Z,62.90
2018-09-10T21:39:34.241Z,62.90
2018-09-10T21:42:09.366Z,62.80
2018-09-10T21:44:37.691Z,62.90
2018-09-10T21:47:06.123Z,63.10
2018-09-10T21:49:34.452Z,63.10
2018-09-10T21:52:02.777Z,63.10
2018-09-10T21:54:31.089Z,63.00
2018-09-10T21:56:59.432Z,63.10
2018-09-10T21:59:27.990Z,63.20
2018-09-10T22:01:57.095Z,63.30
2018-09-10T22:04:25.407Z,63.50
2018-09-10T22:06:53.777Z,63.60
2018-09-10T22:09:22.121Z,63.70
2018-09-10T22:11:55.807Z,63.70
2018-09-10T22:14:24.310Z,63.80
2018-09-10T22:16:52.644Z,63.70
2018-09-10T22:19:20.972Z,64.00
2018-09-10T22:21:49.319Z,63.80
2018-09-10T22:24:17.818Z,63.90
2018-09-10T22:26:46.194Z,63.80
2018-09-10T22:29:14.733Z,63.90
2018-09-10T22:31:43.117Z,64.00
2018-09-10T22:34:11.428Z,64.10
2018-09-10T22:36:39.758Z,64.10
2018-09-10T22:39:11.453Z,64.30
2018-09-10T22:41:39.866Z,64.40
2018-09-10T22:44:08.340Z,64.50
2018-09-10T22:46:36.777Z,64.60
2018-09-10T22:49:05.789Z,64.50
2018-09-10T22:51:34.124Z,64.40
2018-09-10T22:54:02.447Z,64.40
2018-09-10T22:56:30.778Z,64.40
2018-09-10T22:59:05.808Z,64.60
2018-09-10T23:01:34.148Z,64.80
2018-09-10T23:04:02.466Z,65.60
2018-09-10T23:06:30.801Z,64.80
2018-09-10T23:08:59.123Z,64.90
2018-09-10T23:11:27.486Z,64.80
2018-09-10T23:13:55.794Z,64.80
2018-09-10T23:16:24.137Z,64.90
2018-09-10T23:18:52.466Z,64.90
2018-09-10T23:21:20.791Z,65.00
2018-09-10T23:23:49.102Z,64.90
2018-09-10T23:26:17.439Z,65.20
2018-09-10T23:28:45.741Z,65.10
2018-09-10T23:31:14.070Z,65.20
2018-09-10T23:33:42.380Z,65.30
2018-09-10T23:36:10.728Z,65.50
2018-09-10T23:38:39.045Z,65.60
2018-09-10T23:41:07.390Z,65.80
2018-09-10T23:43:35.722Z,65.70
2018-09-10T23:46:04.077Z,65.40
2018-09-10T23:48:32.391Z,65.60
2018-09-10T23:51:00.747Z,65.60
2018-09-10T23:53:29.062Z,65.70
2018-09-10T23:55:57.374Z,65.70
2018-09-10T23:58:25.709Z,66.80
